createdAt,value
2023-02-03T00:00:31.274Z,3.68
2023-02-03T00:03:35.304Z,3.77
2023-02-03T00:06:39.246Z,3.69
2023-02-03T00:09:43.359Z,3.72
2023-02-03T00:12:47.639Z,3.62
2023-02-03T00:15:51.655Z,3.74
2023-02-03T00:18:55.811Z,3.57
2023-02-03T00:21:59.849Z,3.83
2023-02-03T00:25:04.050Z,3.78
2023-02-03T00:28:09.303Z,4.15
2023-02-03T00:31:14.884Z,4.05
2023-02-03T00:34:18.829Z,3.54
2023-02-03T00:37:22.832Z,3.61
2023-02-03T00:40:27.344Z,4.10
2023-02-03T00:43:31.595Z,3.80
2023-02-03T00:46:35.390Z,3.56
2023-02-03T00:49:39.514Z,3.49
2023-02-03T00:52:43.447Z,3.24
2023-02-03T00:55:47.559Z,3.23
2023-02-03T00:58:51.654Z,3.44
2023-02-03T01:01:55.707Z,3.83
2023-02-03T01:05:00.027Z,3.52
2023-02-03T01:08:04.092Z,3.53
2023-02-03T01:11:08.379Z,3.59
2023-02-03T01:14:12.431Z,3.28
2023-02-03T01:17:16.379Z,3.51
2023-02-03T01:20:20.159Z,3.64
2023-02-03T01:23:24.079Z,3.33
2023-02-03T01:26:28.163Z,3.55
2023-02-03T01:29:32.538Z,3.53
2023-02-03T01:32:36.553Z,3.74
2023-02-03T01:35:40.615Z,3.62
2023-02-03T01:38:44.902Z,3.74
2023-02-03T01:41:48.998Z,3.72
2023-02-03T01:44:53.034Z,3.59
2023-02-03T01:47:57.034Z,3.86
2023-02-03T01:51:01.072Z,3.64
2023-02-03T01:54:05.369Z,3.84
2023-02-03T01:57:09.283Z,3.89
2023-02-03T02:00:13.039Z,3.78
2023-02-03T02:03:17.089Z,3.99
2023-02-03T02:06:21.100Z,3.79
2023-02-03T02:09:28.125Z,3.67
2023-02-03T02:12:32.195Z,3.82
2023-02-03T02:15:36.052Z,3.89
2023-02-03T02:18:39.958Z,3.67
2023-02-03T02:21:45.349Z,3.80
2023-02-03T02:24:49.523Z,3.71
2023-02-03T02:27:53.394Z,3.97
2023-02-03T02:30:57.694Z,3.68
2023-02-03T02:34:03.604Z,3.82
2023-02-03T02:37:07.693Z,4.02
2023-02-03T02:40:11.956Z,4.14
2023-02-03T02:43:15.937Z,3.89
2023-02-03T02:46:19.967Z,4.16
2023-02-03T02:49:23.965Z,4.02
2023-02-03T02:52:28.204Z,3.96
2023-02-03T02:55:32.475Z,4.33
2023-02-03T02:58:36.338Z,4.51
2023-02-03T03:01:40.328Z,4.08
2023-02-03T03:04:44.455Z,4.11
2023-02-03T03:07:50.507Z,4.12
2023-02-03T03:10:54.712Z,4.29
2023-02-03T03:13:58.918Z,4.51
2023-02-03T03:17:02.644Z,4.66
2023-02-03T03:20:06.689Z,4.60
2023-02-03T03:23:10.732Z,4.69
2023-02-03T03:26:14.908Z,4.89
2023-02-03T03:29:19.157Z,5.00
2023-02-03T03:32:22.927Z,4.88
2023-02-03T03:35:26.887Z,4.89
2023-02-03T03:38:31.068Z,4.92
2023-02-03T03:41:36.946Z,5.16
2023-02-03T03:44:40.765Z,4.95
2023-02-03T03:47:44.627Z,4.92
2023-02-03T03:50:49.042Z,4.80
2023-02-03T03:53:53.190Z,5.05
2023-02-03T03:56:57.394Z,5.03
2023-02-03T04:00:01.254Z,4.78
2023-02-03T04:03:07.413Z,4.87
2023-02-03T04:06:11.389Z,4.94
2023-02-03T04:09:15.253Z,5.13
2023-02-03T04:12:19.326Z,5.05
2023-02-03T04:15:23.320Z,4.96
2023-02-03T04:18:27.283Z,5.17
2023-02-03T04:21:31.586Z,5.03
2023-02-03T04:24:35.673Z,4.83
2023-02-03T04:27:39.807Z,5.47
2023-02-03T04:30:43.510Z,5.41
2023-02-03T04:33:47.316Z,5.27
2023-02-03T04:36:51.107Z,5.14
2023-02-03T04:39:54.994Z,5.56
2023-02-03T04:42:58.814Z,5.30
2023-02-03T04:46:03.090Z,5.41
2023-02-03T04:49:07.318Z,5.52
2023-02-03T04:52:11.380Z,5.15
2023-02-03T04:55:15.540Z,5.55
2023-02-03T04:58:22.443Z,5.96
2023-02-03T05:01:26.706Z,6.46
2023-02-03T05:04:30.812Z,6.22
2023-02-03T05:07:34.904Z,5.92
2023-02-03T05:10:38.748Z,6.03
2023-02-03T05:13:42.741Z,6.19
2023-02-03T05:16:46.889Z,6.47
2023-02-03T05:19:50.910Z,6.23
2023-02-03T05:22:55.024Z,6.34
2023-02-03T05:25:58.951Z,6.24
2023-02-03T05:29:03.092Z,6.50
2023-02-03T05:32:07.311Z,6.62
2023-02-03T05:35:11.899Z,6.57
2023-02-03T05:38:16.896Z,6.38
2023-02-03T05:41:20.909Z,6.40
2023-02-03T05:44:24.960Z,6.19
2023-02-03T05:47:32.200Z,6.12
2023-02-03T05:50:38.575Z,6.15
2023-02-03T05:53:42.583Z,6.63
2023-02-03T05:56:46.605Z,6.41
2023-02-03T05:59:50.482Z,6.34
2023-02-03T06:02:54.441Z,6.53
2023-02-03T06:05:58.339Z,6.58
2023-02-03T06:09:02.589Z,6.93
2023-02-03T06:12:07.121Z,6.67
2023-02-03T06:15:11.105Z,6.43
2023-02-03T06:18:14.918Z,6.37
2023-02-03T06:21:19.085Z,6.02
2023-02-03T06:24:23.182Z,6.30
2023-02-03T06:27:27.109Z,6.01
2023-02-03T06:30:31.512Z,6.03
2023-02-03T06:33:35.654Z,6.47
2023-02-03T06:36:39.944Z,6.45
2023-02-03T06:39:43.859Z,6.00
2023-02-03T06:42:47.782Z,6.18
2023-02-03T06:45:51.717Z,6.35
2023-02-03T06:48:55.900Z,6.11
2023-02-03T06:52:00.071Z,6.16
2023-02-03T06:55:04.245Z,5.93
2023-02-03T06:58:08.258Z,6.00
2023-02-03T07:01:16.969Z,5.26
2023-02-03T07:04:21.917Z,5.65
2023-02-03T07:07:26.162Z,5.41
2023-02-03T07:10:30.739Z,5.40
2023-02-03T07:13:34.899Z,5.40
2023-02-03T07:16:38.981Z,5.05
2023-02-03T07:19:45.733Z,4.44
2023-02-03T07:22:49.658Z,4.71
2023-02-03T07:25:53.845Z,4.66
2023-02-03T07:28:59.164Z,4.53
2023-02-03T07:32:03.091Z,4.91
2023-02-03T07:35:07.327Z,4.41
2023-02-03T07:38:11.397Z,4.55
2023-02-03T07:41:17.699Z,4.41
2023-02-03T07:44:23.523Z,4.50
2023-02-03T07:47:28.106Z,5.01
2023-02-03T07:50:33.606Z,4.63
2023-02-03T07:53:37.814Z,4.51
2023-02-03T07:56:41.620Z,4.36
2023-02-03T07:59:46.953Z,4.33
2023-02-03T08:02:51.198Z,4.22
2023-02-03T08:05:55.351Z,4.42
2023-02-03T08:09:02.338Z,4.35
2023-02-03T08:12:05.948Z,4.49
2023-02-03T08:15:09.822Z,5.06
2023-02-03T08:18:17.871Z,5.73
2023-02-03T08:21:23.058Z,5.61
2023-02-03T08:24:27.645Z,6.01
2023-02-03T08:27:32.160Z,5.44
2023-02-03T08:30:36.089Z,3.99
2023-02-03T08:33:39.856Z,3.47
2023-02-03T08:36:43.834Z,3.21
2023-02-03T08:39:48.108Z,3.05
2023-02-03T08:42:52.340Z,3.04
2023-02-03T08:45:56.291Z,3.04
2023-02-03T08:49:00.238Z,2.98
2023-02-03T08:52:04.475Z,3.00
2023-02-03T08:55:08.562Z,2.82
2023-02-03T08:58:12.527Z,5.05
2023-02-03T09:01:19.919Z,3.50
2023-02-03T09:04:24.406Z,3.12
2023-02-03T09:07:28.557Z,3.18
2023-02-03T09:10:32.571Z,4.82
2023-02-03T09:13:36.444Z,3.62
2023-02-03T09:16:40.254Z,3.48
2023-02-03T09:19:44.099Z,3.10
2023-02-03T09:22:48.310Z,3.48
2023-02-03T09:25:52.433Z,3.11
2023-02-03T09:28:57.402Z,3.11
2023-02-03T09:32:01.403Z,6.25
2023-02-03T09:35:05.402Z,3.55
2023-02-03T09:38:09.148Z,3.17
2023-02-03T09:41:13.279Z,3.17
2023-02-03T09:44:17.122Z,3.35
2023-02-03T09:47:20.957Z,3.71
2023-02-03T09:50:24.754Z,3.35
2023-02-03T09:53:28.765Z,3.47
2023-02-03T09:56:32.712Z,3.60
2023-02-03T09:59:36.658Z,3.31
2023-02-03T10:02:40.790Z,3.23
2023-02-03T10:05:45.133Z,3.47
2023-02-03T10:08:49.346Z,3.82
2023-02-03T10:11:53.248Z,4.26
2023-02-03T10:14:57.465Z,6.66
2023-02-03T10:18:01.730Z,3.47
2023-02-03T10:21:05.997Z,3.37
2023-02-03T10:24:11.357Z,3.79
2023-02-03T10:30:37.406Z,3.37
2023-02-03T10:33:43.539Z,3.21
2023-02-03T10:36:47.797Z,3.24
2023-02-03T10:39:52.080Z,3.24
2023-02-03T10:42:57.688Z,3.57
2023-02-03T10:46:01.711Z,3.66
2023-02-03T10:49:05.605Z,3.59
2023-02-03T10:52:09.466Z,3.22
2023-02-03T10:55:14.359Z,3.79
2023-02-03T10:58:22.785Z,3.52
2023-02-03T11:01:27.079Z,3.86
2023-02-03T11:04:31.031Z,3.76
2023-02-03T11:07:34.856Z,3.78
2023-02-03T11:10:38.905Z,4.10
2023-02-03T11:13:42.932Z,3.81
2023-02-03T11:16:47.151Z,4.00
2023-02-03T11:19:54.756Z,3.78
2023-02-03T11:22:59.715Z,4.01
2023-02-03T11:26:04.094Z,3.87
2023-02-03T11:29:08.222Z,3.88
2023-02-03T11:32:13.829Z,4.17
2023-02-03T11:35:22.911Z,4.09
2023-02-03T11:38:30.345Z,4.06
2023-02-03T11:41:36.433Z,13.78
2023-02-03T11:44:40.636Z,4.58
2023-02-03T11:47:46.447Z,4.58
2023-02-03T11:50:50.763Z,4.57
2023-02-03T11:53:58.087Z,4.96
2023-02-03T11:57:05.642Z,5.55
2023-02-03T12:00:09.601Z,5.06
2023-02-03T12:03:14.145Z,5.06
2023-02-03T12:06:18.793Z,5.66
2023-02-03T12:09:24.242Z,5.65
2023-02-03T12:12:28.528Z,5.87
2023-02-03T12:15:32.550Z,5.81
2023-02-03T12:18:37.907Z,6.04
2023-02-03T12:21:41.991Z,6.11
2023-02-03T12:24:46.216Z,5.90
2023-02-03T12:27:51.037Z,5.98
2023-02-03T12:30:54.933Z,5.87
2023-02-03T12:33:58.743Z,5.92
2023-02-03T12:37:02.882Z,6.20
2023-02-03T12:40:07.482Z,5.91
2023-02-03T12:43:11.655Z,6.25
2023-02-03T12:46:15.608Z,5.92
2023-02-03T12:49:19.800Z,6.50
2023-02-03T12:52:24.040Z,5.95
2023-02-03T12:55:28.446Z,6.43
2023-02-03T12:58:34.486Z,6.50
2023-02-03T13:01:39.937Z,6.56
2023-02-03T13:04:44.049Z,6.53
2023-02-03T13:07:50.469Z,6.24
2023-02-03T13:10:54.826Z,6.10
2023-02-03T13:13:58.983Z,4.95
2023-02-03T13:17:03.044Z,5.21
2023-02-03T13:20:07.426Z,6.04
2023-02-03T13:23:12.709Z,5.88
2023-02-03T13:26:17.233Z,5.52
2023-02-03T13:29:26.777Z,6.35
2023-02-03T13:32:33.071Z,5.78
2023-02-03T13:35:37.151Z,5.82
2023-02-03T13:38:41.095Z,5.60
2023-02-03T13:41:45.412Z,4.66
2023-02-03T13:44:49.493Z,4.38
2023-02-03T13:47:53.421Z,4.59
2023-02-03T13:50:57.748Z,4.43
2023-02-03T13:54:02.846Z,4.40
2023-02-03T13:57:08.342Z,4.41
2023-02-03T14:00:12.546Z,4.51
2023-02-03T14:03:16.636Z,4.37
2023-02-03T14:06:23.540Z,4.07
2023-02-03T14:09:28.862Z,3.87
2023-02-03T14:12:33.035Z,3.90
2023-02-03T14:15:36.714Z,3.39
2023-02-03T14:18:40.608Z,3.56
2023-02-03T14:25:06.989Z,3.17
2023-02-03T14:28:13.042Z,3.02
2023-02-03T14:31:17.121Z,3.19
2023-02-03T14:34:22.393Z,3.03
2023-02-03T14:37:26.833Z,2.66
2023-02-03T14:40:31.150Z,2.76
2023-02-03T14:43:35.279Z,2.50
2023-02-03T14:46:39.197Z,2.48
2023-02-03T14:49:43.048Z,2.61
2023-02-03T14:52:47.144Z,3.37
2023-02-03T14:55:52.574Z,3.42
2023-02-03T14:58:56.760Z,3.15
2023-02-03T15:02:00.801Z,3.29
2023-02-03T15:05:05.051Z,2.94
2023-02-03T15:08:09.575Z,3.05
2023-02-03T15:14:35.830Z,2.41
2023-02-03T15:17:39.768Z,2.51
2023-02-03T15:20:43.821Z,2.57
2023-02-03T15:23:47.580Z,2.60
2023-02-03T15:26:52.170Z,2.66
2023-02-03T15:29:57.843Z,3.05
2023-02-03T15:33:02.137Z,2.45
2023-02-03T15:36:06.109Z,2.31
2023-02-03T15:39:12.230Z,2.25
2023-02-03T15:42:16.579Z,2.08
2023-02-03T15:45:25.388Z,2.37
2023-02-03T15:48:29.553Z,2.16
2023-02-03T15:51:34.000Z,2.38
2023-02-03T15:54:38.027Z,2.08
2023-02-03T15:57:42.150Z,2.64
2023-02-03T16:00:46.176Z,2.45
2023-02-03T16:03:51.634Z,3.35
2023-02-03T16:06:56.743Z,2.62
2023-02-03T16:10:02.756Z,2.51
2023-02-03T16:13:07.030Z,2.64
2023-02-03T16:16:13.651Z,2.73
2023-02-03T16:19:17.540Z,2.78
2023-02-03T16:22:22.561Z,2.47
2023-02-03T16:25:30.188Z,2.76
2023-02-03T16:28:34.574Z,2.87
2023-02-03T16:37:17.354Z,3.33
2023-02-03T16:40:21.644Z,3.45
2023-02-03T16:43:26.369Z,3.86
2023-02-03T16:46:30.617Z,4.01
2023-02-03T16:49:34.518Z,4.26
2023-02-03T16:52:38.022Z,4.13
2023-02-03T16:55:42.028Z,3.95
2023-02-03T16:59:02.916Z,4.21
2023-02-03T17:08:52.602Z,4.08
2023-02-03T17:11:56.439Z,4.38
2023-02-03T17:15:25.117Z,4.00
2023-02-03T17:18:28.620Z,3.67
2023-02-03T17:21:32.686Z,4.08
2023-02-03T17:24:36.951Z,4.13
2023-02-03T17:27:43.880Z,4.24
2023-02-03T17:30:47.981Z,4.14
2023-02-03T17:33:52.232Z,4.67
2023-02-03T17:36:56.249Z,4.34
2023-02-03T17:53:27.880Z,4.53
2023-02-03T17:56:32.239Z,4.56
2023-02-03T17:59:36.066Z,4.91
2023-02-03T18:02:40.183Z,4.93
2023-02-03T18:05:43.878Z,5.49
2023-02-03T18:08:49.205Z,5.25
2023-02-03T18:11:53.982Z,4.74
2023-02-03T18:14:58.172Z,4.96
2023-02-03T18:18:02.791Z,4.81
2023-02-03T18:21:06.905Z,5.03
2023-02-03T18:24:10.609Z,5.24
2023-02-03T18:27:14.909Z,5.02
2023-02-03T18:30:18.820Z,5.09
2023-02-03T18:33:22.874Z,4.64
2023-02-03T18:36:26.548Z,4.68
2023-02-03T18:39:30.883Z,3.99
2023-02-03T18:42:34.969Z,4.08
2023-02-03T18:45:38.796Z,4.24
2023-02-03T18:48:42.978Z,4.39
2023-02-03T18:51:46.680Z,4.48
2023-02-03T18:54:50.513Z,4.21
2023-02-03T18:57:54.746Z,4.28
2023-02-03T19:01:00.063Z,4.69
2023-02-03T19:04:03.997Z,4.62
2023-02-03T19:07:08.282Z,4.99
2023-02-03T19:10:12.370Z,8.26
2023-02-03T19:13:16.316Z,14.00
2023-02-03T19:16:20.475Z,13.21
2023-02-03T19:19:24.543Z,10.77
2023-02-03T19:22:28.721Z,8.42
2023-02-03T19:25:32.787Z,5.45
2023-02-03T19:28:36.862Z,2.98
2023-02-03T19:31:41.001Z,2.62
2023-02-03T19:34:45.023Z,2.28
2023-02-03T19:37:49.210Z,2.46
2023-02-03T19:40:53.231Z,2.73
2023-02-03T19:43:57.469Z,2.38
2023-02-03T19:47:01.497Z,2.21
2023-02-03T19:50:05.620Z,2.41
2023-02-03T19:53:09.865Z,2.54
2023-02-03T19:56:13.751Z,2.61
2023-02-03T19:59:17.950Z,2.78
2023-02-03T20:02:22.519Z,2.50
2023-02-03T20:05:26.662Z,2.56
2023-02-03T20:08:30.727Z,2.79
2023-02-03T20:11:34.752Z,2.91
2023-02-03T20:14:38.505Z,2.80
2023-02-03T20:17:42.402Z,3.15
2023-02-03T20:20:46.707Z,2.97
2023-02-03T20:23:50.724Z,3.25
2023-02-03T20:26:54.355Z,2.72
2023-02-03T20:29:58.476Z,2.62
2023-02-03T20:33:03.549Z,2.89
2023-02-03T20:36:07.667Z,3.27
2023-02-03T20:39:11.885Z,3.09
2023-02-03T20:42:15.936Z,2.82
2023-02-03T20:45:20.151Z,3.05
2023-02-03T20:48:24.407Z,3.33
2023-02-03T20:51:28.415Z,3.97
2023-02-03T20:54:32.439Z,4.31
2023-02-03T20:57:36.387Z,4.23
2023-02-03T21:00:40.484Z,6.02
2023-02-03T21:03:44.822Z,5.10
2023-02-03T21:06:48.934Z,4.72
2023-02-03T21:09:53.025Z,6.09
2023-02-03T21:12:57.335Z,9.87
2023-02-03T21:16:01.337Z,9.34
2023-02-03T21:19:05.454Z,7.17
2023-02-03T21:22:09.599Z,6.33
2023-02-03T21:25:13.384Z,5.48
2023-02-03T21:28:17.550Z,4.47
2023-02-03T21:31:21.659Z,4.56
2023-02-03T21:34:25.553Z,4.61
2023-02-03T21:37:29.463Z,4.70
2023-02-03T21:40:33.662Z,4.58
2023-02-03T21:43:37.777Z,4.87
2023-02-03T21:46:41.669Z,4.53
2023-02-03T21:49:45.582Z,4.16
2023-02-03T21:52:49.642Z,3.49
2023-02-03T21:55:53.651Z,4.04
2023-02-03T21:58:57.805Z,3.74
2023-02-03T22:02:01.765Z,4.21
2023-02-03T22:05:05.762Z,3.95
2023-02-03T22:08:09.891Z,3.92
2023-02-03T22:11:14.204Z,3.83
2023-02-03T22:14:18.394Z,3.71
2023-02-03T22:17:22.128Z,3.97
2023-02-03T22:20:26.315Z,3.71
2023-02-03T22:23:30.116Z,3.88
2023-02-03T22:26:34.426Z,3.26
2023-02-03T22:29:38.599Z,3.97
2023-02-03T22:32:42.537Z,3.87
2023-02-03T22:35:46.564Z,3.36
2023-02-03T22:38:50.675Z,3.23
2023-02-03T22:41:54.668Z,3.54
2023-02-03T22:44:58.841Z,3.14
2023-02-03T22:48:02.962Z,3.50
2023-02-03T22:51:06.770Z,3.16
2023-02-03T22:54:11.202Z,3.15
2023-02-03T22:57:14.982Z,2.94
2023-02-03T23:00:18.747Z,3.03
2023-02-03T23:03:22.702Z,2.95
2023-02-03T23:06:28.761Z,2.93
2023-02-03T23:09:32.718Z,2.88
2023-02-03T23:12:36.775Z,2.99
2023-02-03T23:15:40.745Z,2.68
2023-02-03T23:18:44.947Z,4.89
2023-02-03T23:21:49.158Z,2.68
2023-02-03T23:24:53.163Z,2.73
2023-02-03T23:27:57.280Z,2.67
2023-02-03T23:31:01.101Z,2.73
2023-02-03T23:34:04.851Z,2.77
2023-02-03T23:37:08.849Z,2.87
2023-02-03T23:40:13.035Z,2.87
2023-02-03T23:43:16.693Z,2.54
2023-02-03T23:46:20.713Z,2.39
2023-02-03T23:49:24.919Z,2.13
2023-02-03T23:52:29.171Z,2.27
2023-02-03T23:55:33.203Z,2.36
2023-02-03T23:58:37.235Z,2.20
